Time;durP1;ratioP1;P1;durP2;ratioP2;P2;SDS_P1;SDS_P2;PMS_P1;PMS_P2;Temp;Humidity;BMP_temperature;BMP_pressure;BME280_temperature;BME280_humidity;BME280_pressure;Samples;Min_cycle;Max_cycle;Signal;HPM_P1;HPM_P2
2022/04/21 00:00:17;;;;;;;;;;;;;;;2.81;100.00;95193.91;1023304;29;19986;-70
2022/04/21 00:00:47;;;;;;;;;;;;;;;2.78;100.00;95197.75;1023087;29;20658;-70
2022/04/21 00:01:18;;;;;;;;;;;;;;;2.81;100.00;95193.91;1027089;28;20414;-70
2022/04/21 00:01:48;;;;;;;;;;;;;;;2.82;100.00;95195.50;1034773;28;19922;-70
2022/04/21 00:02:18;;;;;;;;;;;;;;;2.88;100.00;95197.16;1035106;28;19928;-70
2022/04/21 00:02:49;;;;;;;;;;;;;;;2.83;100.00;95194.47;1031025;28;19920;-70
2022/04/21 00:03:19;;;;;;;;;;;;;;;2.81;100.00;95188.72;1031020;28;20446;-70
2022/04/21 00:03:50;;;;;;;;;;;;;;;2.86;100.00;95196.63;1027206;28;19921;-70
2022/04/21 00:04:23;;;;;;;;;;;;;;;2.84;100.00;95193.44;1027233;28;19929;-69
2022/04/21 00:04:53;;;;;;;;;;;;;;;2.84;100.00;95194.22;1022845;28;20478;-69
2022/04/21 00:05:23;;;;;;;;;;;;;;;2.86;100.00;95191.44;1023183;29;19926;-70
2022/04/21 00:05:54;;;;;;;;;;;;;;;2.83;100.00;95187.50;1023323;29;19958;-70
2022/04/21 00:06:24;;;;;;;;;;;;;;;2.87;100.00;95193.00;1023180;29;19933;-70
2022/04/21 00:06:54;;;;;;;;;;;;;;;2.87;100.00;95187.81;1029661;28;20000;-69
2022/04/21 00:07:25;;;;;;;;;;;;;;;2.86;100.00;95190.66;1019056;29;20291;-70
2022/04/21 00:07:55;;;;;;;;;;;;;;;2.83;100.00;95191.88;1018557;29;19923;-71
2022/04/21 00:08:25;;;;;;;;;;;;;;;2.87;100.00;95185.22;1023361;28;20444;-70
2022/04/21 00:08:56;;;;;;;;;;;;;;;2.84;100.00;95185.69;1019107;28;19930;-70
2022/04/21 00:09:29;;;;;;;;;;;;;;;2.87;100.00;95182.63;1027197;28;20439;-70
2022/04/21 00:10:03;;;;;;;;;;;;;;;2.90;100.00;95181.41;1027149;28;19922;-69
2022/04/21 00:10:33;;;;;;;;;;;;;;;2.88;100.00;95179.03;1024014;28;19925;-70
2022/04/21 00:11:03;;;;;;;;;;;;;;;2.85;100.00;95179.50;1019066;28;19922;-70
2022/04/21 00:11:33;;;;;;;;;;;;;;;2.87;100.00;95187.81;1015190;29;19919;-70
2022/04/21 00:12:04;;;;;;;;;;;;;;;2.87;100.00;95172.28;1011296;29;20353;-71
2022/04/21 00:12:34;;;;;;;;;;;;;;;2.84;100.00;95180.50;1019438;29;20436;-70
2022/04/21 00:13:07;;;;;;;;;;;;;;;2.88;100.00;95180.81;1019840;28;19914;-69
2022/04/21 00:13:38;;;;;;;;;;;;;;;2.94;100.00;95178.13;1027039;28;19922;-70
2022/04/21 00:14:08;;;;;;;;;;;;;;;2.93;100.00;95176.56;1027482;28;19922;-70
2022/04/21 00:14:38;;;;;;;;;;;;;;;2.91;100.00;95178.56;1031089;28;19922;-71
2022/04/21 00:15:09;;;;;;;;;;;;;;;2.96;100.00;95181.28;1031036;28;19922;-70
2022/04/21 00:15:42;;;;;;;;;;;;;;;2.92;100.00;95180.16;1030933;28;19922;-70
2022/04/21 00:16:12;;;;;;;;;;;;;;;2.88;100.00;95180.81;1030984;28;20457;-70
2022/04/21 00:16:43;;;;;;;;;;;;;;;2.87;100.00;95180.03;1030805;28;19925;-70
2022/04/21 00:17:13;;;;;;;;;;;;;;;2.87;100.00;95174.88;1026582;28;19997;-70
2022/04/21 00:17:43;;;;;;;;;;;;;;;2.87;100.00;95182.63;1023025;28;19927;-70
2022/04/21 00:18:14;;;;;;;;;;;;;;;2.89;100.00;95174.66;1023411;29;19918;-70
2022/04/21 00:18:46;;;;;;;;;;;;;;;2.89;100.00;95180.63;1023034;29;19934;-70
2022/04/21 00:19:16;;;;;;;;;;;;;;;2.86;100.00;95181.06;1026425;28;19926;-70
2022/04/21 00:19:46;;;;;;;;;;;;;;;2.86;100.00;95175.88;1030346;28;19918;-70
2022/04/21 00:20:17;;;;;;;;;;;;;;;2.85;100.00;95174.31;1026123;28;19918;-70
2022/04/21 00:20:47;;;;;;;;;;;;;;;2.84;100.00;95175.31;1023188;28;20012;-70
2022/04/21 00:21:17;;;;;;;;;;;;;;;2.86;100.00;95175.09;1022833;29;19919;-70
2022/04/21 00:23:40;;;;;;;;;;;;;;;2.79;100.00;95170.03;1022690;29;19973;-70
2022/04/21 00:24:10;;;;;;;;;;;;;;;2.80;100.00;95172.38;1026779;28;20308;-70
2022/04/21 00:24:40;;;;;;;;;;;;;;;2.79;100.00;95177.81;1023020;29;19926;-70
2022/04/21 00:25:11;;;;;;;;;;;;;;;2.78;100.00;95173.63;1023233;29;19933;-70
2022/04/21 00:25:41;;;;;;;;;;;;;;;2.78;100.00;95173.63;1026451;28;20033;-70
2022/04/21 00:26:13;;;;;;;;;;;;;;;2.76;100.00;95176.47;1027146;28;20156;-70
2022/04/21 00:26:43;;;;;;;;;;;;;;;2.74;100.00;95172.50;1026392;28;19918;-69
2022/04/21 00:27:13;;;;;;;;;;;;;;;2.73;100.00;95173.53;1026858;28;20610;-70
2022/04/21 00:27:44;;;;;;;;;;;;;;;2.70;100.00;95174.00;1026830;28;19918;-70
2022/04/21 00:28:17;;;;;;;;;;;;;;;2.68;100.00;95178.59;1026983;28;19922;-70
2022/04/21 00:28:47;;;;;;;;;;;;;;;2.70;100.00;95177.34;1027104;28;19918;-70
2022/04/21 00:29:17;;;;;;;;;;;;;;;2.67;100.00;95170.03;1025046;28;19918;-70
2022/04/21 00:29:48;;;;;;;;;;;;;;;2.67;100.00;95171.84;1027282;28;20390;-70
2022/04/21 00:30:21;;;;;;;;;;;;;;;2.65;100.00;95172.09;1027311;28;19917;-69
2022/04/21 00:30:54;;;;;;;;;;;;;;;2.66;100.00;95175.47;1023192;28;20412;-70
2022/04/21 00:31:24;;;;;;;;;;;;;;;2.66;100.00;95173.66;1022956;29;20034;-70
2022/04/21 00:31:55;;;;;;;;;;;;;;;2.67;100.00;95174.44;1023839;28;19981;-70
2022/04/21 00:32:25;;;;;;;;;;;;;;;2.66;100.00;95175.47;1022949;29;20284;-69
2022/04/21 00:32:55;;;;;;;;;;;;;;;2.64;100.00;95177.47;1023401;28;20388;-70
2022/04/21 00:33:26;;;;;;;;;;;;;;;2.64;100.00;95177.47;1023033;29;19946;-70
2022/04/21 00:33:56;;;;;;;;;;;;;;;2.63;100.00;95173.31;1018820;28;19922;-70
2022/04/21 00:34:26;;;;;;;;;;;;;;;2.63;100.00;95181.09;1027133;28;19918;-70
2022/04/21 00:34:57;;;;;;;;;;;;;;;2.63;100.00;95175.91;1027021;28;19921;-70
2022/04/21 00:35:27;;;;;;;;;;;;;;;2.66;100.00;95172.88;1031153;28;20291;-70
2022/04/21 00:35:57;;;;;;;;;;;;;;;2.64;100.00;95183.44;1031319;28;19918;-70
2022/04/21 00:36:30;;;;;;;;;;;;;;;2.64;100.00;95173.09;1031051;28;19910;-70
2022/04/21 00:37:01;;;;;;;;;;;;;;;2.64;100.00;95172.28;1030420;28;19914;-70
2022/04/21 00:37:31;;;;;;;;;;;;;;;2.62;100.00;95174.34;1026315;28;19914;-70
2022/04/21 00:38:01;;;;;;;;;;;;;;;2.59;100.00;95178.94;1027145;28;19942;-70
2022/04/21 00:38:32;;;;;;;;;;;;;;;2.59;100.00;95176.34;1031250;28;20204;-70
2022/04/21 00:39:02;;;;;;;;;;;;;;;2.59;100.00;95175.56;1031006;28;20443;-70
2022/04/21 00:39:32;;;;;;;;;;;;;;;2.57;100.00;95173.19;1030851;28;19968;-71
2022/04/21 00:40:05;;;;;;;;;;;;;;;2.57;100.00;95165.44;1031057;28;19918;-70
2022/04/21 00:40:36;;;;;;;;;;;;;;;2.57;100.00;95168.03;1026811;28;19921;-70
2022/04/21 00:41:06;;;;;;;;;;;;;;;2.63;100.00;95170.72;1019690;29;19957;-70
2022/04/21 00:41:40;;;;;;;;;;;;;;;2.62;100.00;95172.53;1022921;29;19922;-70
2022/04/21 00:42:11;;;;;;;;;;;;;;;2.64;100.00;95162.72;1023281;28;19926;-70
2022/04/21 00:42:41;;;;;;;;;;;;;;;2.70;100.00;95166.22;1024099;28;20300;-70
2022/04/21 00:43:12;;;;;;;;;;;;;;;2.68;100.00;95160.47;1030498;28;20028;-70
2022/04/21 00:43:42;;;;;;;;;;;;;;;2.68;100.00;95157.88;1030887;28;19945;-70
2022/04/21 00:44:12;;;;;;;;;;;;;;;2.67;100.00;95164.84;1026997;28;19957;-70
2022/04/21 00:44:42;;;;;;;;;;;;;;;2.68;100.00;95161.25;1026895;28;19918;-69
2022/04/21 00:45:13;;;;;;;;;;;;;;;2.66;100.00;95163.28;1027224;28;19914;-70
2022/04/21 00:45:47;;;;;;;;;;;;;;;2.65;100.00;95164.31;1026858;28;19978;-70
2022/04/21 00:46:18;;;;;;;;;;;;;;;2.63;100.00;95168.13;1026691;28;19954;-71
2022/04/21 00:46:48;;;;;;;;;;;;;;;2.60;100.00;95161.59;1023251;28;19922;-70
2022/04/21 00:47:18;;;;;;;;;;;;;;;2.58;100.00;95164.44;1027328;28;19922;-70
2022/04/21 00:47:49;;;;;;;;;;;;;;;2.59;100.00;95163.41;1026984;28;20024;-70
2022/04/21 00:48:19;;;;;;;;;;;;;;;2.56;100.00;95163.88;1023036;28;20094;-70
2022/04/21 00:48:49;;;;;;;;;;;;;;;2.56;100.00;95156.09;1018953;29;19933;-70
2022/04/21 00:49:20;;;;;;;;;;;;;;;2.55;100.00;95159.69;1018994;29;19919;-70
2022/04/21 00:49:53;;;;;;;;;;;;;;;2.56;100.00;95161.28;1023040;28;20025;-71
2022/04/21 00:50:30;;;;;;;;;;;;;;;2.56;100.00;95150.91;1027271;28;19918;-70
2022/04/21 00:51:00;;;;;;;;;;;;;;;2.55;100.00;95159.69;1027143;28;19925;-71
2022/04/21 00:51:31;;;;;;;;;;;;;;;2.56;100.00;95150.91;1028294;28;19993;-71
2022/04/21 00:52:03;;;;;;;;;;;;;;;2.57;100.00;95157.66;1031099;28;19928;-70
2022/04/21 00:52:33;;;;;;;;;;;;;;;2.58;100.00;95151.47;1026662;28;19918;-70
2022/04/21 00:53:03;;;;;;;;;;;;;;;2.60;100.00;95152.03;1028436;28;19910;-70
2022/04/21 00:53:34;;;;;;;;;;;;;;;2.60;100.00;95152.03;1031115;28;19913;-70
2022/04/21 00:54:04;;;;;;;;;;;;;;;2.57;100.00;95151.69;1030919;28;20077;-70
2022/04/21 00:54:34;;;;;;;;;;;;;;;2.57;100.00;95149.09;1026619;28;19918;-70
2022/04/21 00:55:05;;;;;;;;;;;;;;;2.56;100.00;95150.91;1019087;29;19922;-70
2022/04/21 00:55:39;;;;;;;;;;;;;;;2.57;100.00;95146.50;1022949;29;20410;-70
2022/04/21 00:56:09;;;;;;;;;;;;;;;2.55;100.00;95144.16;1019717;29;19946;-71
2022/04/21 00:56:40;;;;;;;;;;;;;;;2.55;100.00;95144.16;1019409;28;20436;-69
2022/04/21 00:57:10;;;;;;;;;;;;;;;2.56;100.00;95144.94;1022665;29;20435;-70
2022/04/21 00:57:41;;;;;;;;;;;;;;;2.57;100.00;95152.47;1017706;29;19914;-70
2022/04/21 00:58:11;;;;;;;;;;;;;;;2.54;100.00;95150.34;1020846;28;19922;-71
2022/04/21 00:58:43;;;;;;;;;;;;;;;2.51;100.00;95145.59;1022790;28;19914;-70
2022/04/21 00:59:16;;;;;;;;;;;;;;;2.52;100.00;95147.22;1024023;28;19922;-70
2022/04/21 00:59:47;;;;;;;;;;;;;;;2.53;100.00;95145.41;1030944;28;19917;-70
2022/04/21 01:00:17;;;;;;;;;;;;;;;2.54;100.00;95146.97;1027591;28;19922;-69
2022/04/21 01:00:47;;;;;;;;;;;;;;;2.52;100.00;95144.63;1030959;28;19918;-70
2022/04/21 01:02:56;;;;;;;;;;;;;;;2.49;100.00;95150.25;1023875;28;20063;-70
2022/04/21 01:03:27;;;;;;;;;;;;;;;2.48;100.00;95147.88;1029990;28;20049;-70
2022/04/21 01:03:57;;;;;;;;;;;;;;;2.45;100.00;95143.94;1026786;28;19914;-70
2022/04/21 01:04:27;;;;;;;;;;;;;;;2.44;100.00;95144.16;1027036;28;19922;-70
2022/04/21 01:04:59;;;;;;;;;;;;;;;2.44;100.00;95142.34;1024009;28;19926;-70
2022/04/21 01:05:30;;;;;;;;;;;;;;;2.43;100.00;95150.34;1026861;28;20764;-70
2022/04/21 01:06:01;;;;;;;;;;;;;;;2.47;100.00;95152.25;1023733;28;19923;-69
2022/04/21 01:06:31;;;;;;;;;;;;;;;2.42;100.00;95148.78;1023249;28;19918;-70
2022/04/21 01:07:01;;;;;;;;;;;;;;;2.41;100.00;95147.97;1018820;28;20392;-70
2022/04/21 01:07:32;;;;;;;;;;;;;;;2.43;100.00;95145.97;1026863;28;19918;-70
2022/04/21 01:08:03;;;;;;;;;;;;;;;2.48;100.00;95143.50;1018838;29;19918;-70
2022/04/21 01:08:33;;;;;;;;;;;;;;;2.48;100.00;95140.09;1020601;28;19911;-70
2022/04/21 01:09:03;;;;;;;;;;;;;;;2.47;100.00;95149.66;1029605;28;19925;-70
2022/04/21 01:09:35;;;;;;;;;;;;;;;2.45;100.00;95143.13;1028843;28;19945;-71
2022/04/21 01:10:06;;;;;;;;;;;;;;;2.40;100.00;95146.41;1025413;28;20417;-71
2022/04/21 01:10:37;;;;;;;;;;;;;;;2.41;100.00;95142.03;1029100;28;20324;-70
2022/04/21 01:11:07;;;;;;;;;;;;;;;2.42;100.00;95143.63;1025273;28;19911;-70
2022/04/21 01:11:38;;;;;;;;;;;;;;;2.42;100.00;95152.16;1020160;28;19915;-71
2022/04/21 01:12:11;;;;;;;;;;;;;;;2.41;100.00;95152.38;1022725;28;19980;-70
2022/04/21 01:12:41;;;;;;;;;;;;;;;2.40;100.00;95145.63;1023604;28;19953;-71
2022/04/21 01:13:13;;;;;;;;;;;;;;;2.38;100.00;95148.44;1023516;28;20408;-71
2022/04/21 01:13:43;;;;;;;;;;;;;;;2.38;100.00;95147.66;1023207;28;19918;-71
2022/04/21 01:14:16;;;;;;;;;;;;;;;2.37;100.00;95154.63;1026426;28;19922;-71
2022/04/21 01:14:47;;;;;;;;;;;;;;;2.37;100.00;95146.84;1023445;28;20034;-70
2022/04/21 01:15:17;;;;;;;;;;;;;;;2.33;100.00;95150.91;1027351;28;19985;-70
2022/04/21 01:15:47;;;;;;;;;;;;;;;2.33;100.00;95149.13;1027885;28;20335;-70
2022/04/21 01:16:18;;;;;;;;;;;;;;;2.31;100.00;95152.94;1026824;28;19925;-70
2022/04/21 01:16:48;;;;;;;;;;;;;;;2.30;100.00;95153.97;1026575;28;20434;-70
2022/04/21 01:17:20;;;;;;;;;;;;;;;2.27;100.00;95144.84;1022609;28;19950;-70
2022/04/21 01:17:51;;;;;;;;;;;;;;;2.30;100.00;95146.97;1018558;29;19914;-70
2022/04/21 01:18:28;;;;;;;;;;;;;;;2.29;100.00;95147.22;1018900;29;20018;-70
2022/04/21 01:18:59;;;;;;;;;;;;;;;2.29;100.00;95148.00;1015591;29;19915;-70
2022/04/21 01:19:29;;;;;;;;;;;;;;;2.26;100.00;95143.25;1027069;28;19921;-70
2022/04/21 01:19:59;;;;;;;;;;;;;;;2.29;100.00;95150.59;1026221;28;19925;-69
2022/04/21 01:20:29;;;;;;;;;;;;;;;2.26;100.00;95145.06;1026008;28;19914;-71
2022/04/21 01:21:00;;;;;;;;;;;;;;;2.28;100.00;95143.84;1030964;28;19922;-70
2022/04/21 01:21:30;;;;;;;;;;;;;;;2.29;100.00;95144.63;1022882;29;19942;-70
2022/04/21 01:22:00;;;;;;;;;;;;;;;2.30;100.00;95141.00;1022583;28;19918;-71
2022/04/21 01:22:31;;;;;;;;;;;;;;;2.28;100.00;95146.44;1028860;28;19906;-71
2022/04/21 01:23:01;;;;;;;;;;;;;;;2.28;100.00;95149.00;1022748;28;20005;-70
2022/04/21 01:23:31;;;;;;;;;;;;;;;2.27;100.00;95144.03;1023152;29;20342;-71
2022/04/21 01:24:04;;;;;;;;;;;;;;;1.89;100.00;95091.72;1019087;28;19993;-71
2022/04/21 01:24:34;;;;;;;;;;;;;;;2.27;100.00;95146.63;1014933;29;19954;-71
2022/04/21 01:25:05;;;;;;;;;;;;;;;2.29;100.00;95142.81;1015765;29;20355;-71
2022/04/21 01:25:36;;;;;;;;;;;;;;;2.28;100.00;95146.44;1023085;28;20447;-72
2022/04/21 01:26:06;;;;;;;;;;;;;;;2.26;100.00;95148.44;1022888;28;20336;-71
2022/04/21 01:26:37;;;;;;;;;;;;;;;2.23;100.00;95148.88;1022953;28;19929;-71
2022/04/21 01:27:07;;;;;;;;;;;;;;;2.30;100.00;95146.97;1022102;29;20019;-70
2022/04/21 01:27:40;;;;;;;;;;;;;;;2.28;100.00;95140.44;1025292;28;19997;-71
2022/04/21 01:28:11;;;;;;;;;;;;;;;2.30;100.00;95143.59;1019213;29;20384;-70
2022/04/21 01:28:41;;;;;;;;;;;;;;;2.29;100.00;95144.63;1022182;29;19918;-70
2022/04/21 01:29:12;;;;;;;;;;;;;;;2.26;100.00;95145.06;1020573;28;20227;-71
2022/04/21 01:29:43;;;;;;;;;;;;;;;2.26;100.00;95153.63;1026830;28;19925;-70
2022/04/21 01:30:13;;;;;;;;;;;;;;;2.27;100.00;95154.41;1022650;28;19922;-71
2022/04/21 01:30:43;;;;;;;;;;;;;;;2.27;100.00;95149.22;1019173;29;20006;-70
2022/04/21 01:31:19;;;;;;;;;;;;;;;2.30;100.00;95154.75;1018650;29;20515;-70
2022/04/21 01:31:49;;;;;;;;;;;;;;;2.29;100.00;95149.81;1019638;29;19910;-69
2022/04/21 01:32:20;;;;;;;;;;;;;;;2.35;100.00;95152.28;1023251;28;19955;-70
2022/04/21 01:32:51;;;;;;;;;;;;;;;2.32;100.00;95151.94;1019435;29;19917;-71
2022/04/21 01:33:21;;;;;;;;;;;;;;;2.32;100.00;95144.19;1023052;28;19914;-70
2022/04/21 01:33:52;;;;;;;;;;;;;;;2.36;100.00;95150.47;1022813;29;20450;-71
2022/04/21 01:34:22;;;;;;;;;;;;;;;2.34;100.00;95147.31;1022988;28;19930;-71
2022/04/21 01:34:53;;;;;;;;;;;;;;;2.35;100.00;95148.91;1030886;28;19910;-70
2022/04/21 01:35:23;;;;;;;;;;;;;;;2.33;100.00;95145.75;1030741;28;20418;-71
2022/04/21 01:35:53;;;;;;;;;;;;;;;2.32;100.00;95147.53;1026934;28;19914;-70
2022/04/21 01:36:24;;;;;;;;;;;;;;;2.29;100.00;95145.41;1026530;28;19914;-70
2022/04/21 01:41:14;;;;;;;;;;;;;;;2.27;100.00;95141.47;1027095;28;20012;-70
2022/04/21 01:41:44;;;;;;;;;;;;;;;2.30;100.00;95141.00;1030667;28;19909;-70
2022/04/21 01:42:15;;;;;;;;;;;;;;;2.30;100.00;95146.19;1030809;28;20624;-70
2022/04/21 01:42:45;;;;;;;;;;;;;;;2.30;100.00;95141.00;1026639;28;19917;-70
2022/04/21 01:43:16;;;;;;;;;;;;;;;2.33;100.00;95148.34;1024812;28;19914;-71
2022/04/21 01:43:46;;;;;;;;;;;;;;;2.30;100.00;95141.78;1026679;28;20391;-71
2022/04/21 01:44:16;;;;;;;;;;;;;;;2.30;100.00;95144.38;1027206;28;20205;-70
2022/04/21 01:44:47;;;;;;;;;;;;;;;2.30;100.00;95146.19;1027104;28;19921;-70
2022/04/21 01:45:17;;;;;;;;;;;;;;;2.33;100.00;95140.56;1026715;28;19987;-70
2022/04/21 01:45:47;;;;;;;;;;;;;;;2.33;100.00;95141.34;1022837;29;19910;-70
2022/04/21 01:46:17;;;;;;;;;;;;;;;2.32;100.00;95149.34;1024465;28;20024;-70
2022/04/21 01:46:48;;;;;;;;;;;;;;;2.31;100.00;95143.38;1026257;28;19918;-70
2022/04/21 01:47:20;;;;;;;;;;;;;;;2.35;100.00;95138.56;1022632;28;20396;-70
2022/04/21 01:47:50;;;;;;;;;;;;;;;2.33;100.00;95138.75;1023270;28;19922;-70
2022/04/21 01:48:20;;;;;;;;;;;;;;;2.32;100.00;95144.19;1022999;29;19925;-71
2022/04/21 01:48:51;;;;;;;;;;;;;;;2.31;100.00;95145.16;1022811;28;19970;-70
2022/04/21 01:49:21;;;;;;;;;;;;;;;2.31;100.00;95145.16;1022659;28;19917;-71
2022/04/21 01:49:51;;;;;;;;;;;;;;;2.34;100.00;95142.13;1023971;28;20527;-71
2022/04/21 01:50:24;;;;;;;;;;;;;;;2.35;100.00;95138.56;1026777;28;19926;-70
2022/04/21 01:50:55;;;;;;;;;;;;;;;2.33;100.00;95141.34;1027215;28;19918;-72
2022/04/21 01:51:25;;;;;;;;;;;;;;;2.34;100.00;95139.53;1028668;28;20310;-70
2022/04/21 01:51:56;;;;;;;;;;;;;;;2.33;100.00;95136.16;1026465;28;19919;-70
2022/04/21 01:52:26;;;;;;;;;;;;;;;2.32;100.00;95139.00;1027084;28;20454;-71
2022/04/21 01:52:58;;;;;;;;;;;;;;;2.34;100.00;95142.13;1022524;28;19919;-70
2022/04/21 01:53:28;;;;;;;;;;;;;;;2.32;100.00;95144.19;1023072;28;19946;-68
2022/04/21 01:53:58;;;;;;;;;;;;;;;2.32;100.00;95139.00;1023638;29;20316;-70
2022/04/21 01:54:29;;;;;;;;;;;;;;;2.32;100.00;95141.59;1019578;29;19915;-71
2022/04/21 01:54:59;;;;;;;;;;;;;;;2.31;100.00;95132.22;1021646;29;20409;-70
2022/04/21 01:55:29;;;;;;;;;;;;;;;2.29;100.00;95136.84;1023600;28;19950;-71
2022/04/21 01:55:59;;;;;;;;;;;;;;;2.29;100.00;95144.63;1027410;28;20360;-71
2022/04/21 01:56:30;;;;;;;;;;;;;;;2.31;100.00;95138.22;1031399;28;19920;-71
2022/04/21 01:57:00;;;;;;;;;;;;;;;2.30;100.00;95139.22;1026324;28;19918;-70
2022/04/21 01:57:30;;;;;;;;;;;;;;;2.31;100.00;95138.22;1031214;28;19949;-70
2022/04/21 01:58:01;;;;;;;;;;;;;;;2.34;100.00;95134.38;1031587;28;19914;-70
2022/04/21 01:58:31;;;;;;;;;;;;;;;2.33;100.00;95140.56;1027559;28;20339;-71
2022/04/21 01:59:01;;;;;;;;;;;;;;;2.31;100.00;95134.81;1031311;28;20350;-71
2022/04/21 01:59:32;;;;;;;;;;;;;;;2.31;100.00;95137.41;1027561;28;19922;-70
2022/04/21 02:00:03;;;;;;;;;;;;;;;2.30;100.00;95141.78;1027268;28;19922;-70
2022/04/21 02:00:34;;;;;;;;;;;;;;;2.31;100.00;95134.81;1027915;28;19921;-70
2022/04/21 02:01:04;;;;;;;;;;;;;;;2.29;100.00;95135.06;1027731;28;19921;-71
2022/04/21 02:01:35;;;;;;;;;;;;;;;2.32;100.00;95133.81;1031606;28;19917;-71
2022/04/21 02:02:05;;;;;;;;;;;;;;;2.28;100.00;95140.44;1035399;28;19944;-71
2022/04/21 02:02:35;;;;;;;;;;;;;;;2.28;100.00;95135.25;1027911;28;20004;-71
2022/04/21 02:03:06;;;;;;;;;;;;;;;2.27;100.00;95141.47;1027751;28;19929;-70
2022/04/21 02:03:36;;;;;;;;;;;;;;;2.26;100.00;95142.47;1027366;28;19914;-71
2022/04/21 02:04:06;;;;;;;;;;;;;;;2.29;100.00;95139.44;1023532;29;19935;-71
2022/04/21 02:04:36;;;;;;;;;;;;;;;2.30;100.00;95136.63;1023783;28;19917;-70
2022/04/21 02:05:07;;;;;;;;;;;;;;;2.29;100.00;95134.28;1030180;28;19921;-71
2022/04/21 02:05:37;;;;;;;;;;;;;;;2.30;100.00;95141.00;1031570;28;20512;-71
2022/04/21 02:06:07;;;;;;;;;;;;;;;2.29;100.00;95140.22;1031778;28;20490;-70
2022/04/21 02:06:38;;;;;;;;;;;;;;;2.28;100.00;95137.84;1027340;28;19926;-70
2022/04/21 02:07:08;;;;;;;;;;;;;;;2.28;100.00;95136.06;1022784;28;19990;-71
2022/04/21 02:07:42;;;;;;;;;;;;;;;2.27;100.00;95136.28;1019822;29;19923;-70
2022/04/21 02:08:12;;;;;;;;;;;;;;;2.26;100.00;95139.91;1027544;28;19918;-71
2022/04/21 02:08:42;;;;;;;;;;;;;;;2.24;100.00;95139.31;1020568;29;19922;-70
2022/04/21 02:09:14;;;;;;;;;;;;;;;2.21;100.00;95142.34;1023427;29;19925;-70
2022/04/21 02:09:44;;;;;;;;;;;;;;;2.19;100.00;95134.03;1019589;29;19946;-70
2022/04/21 02:10:15;;;;;;;;;;;;;;;2.19;100.00;95140.00;1016250;29;19927;-70
2022/04/21 02:10:45;;;;;;;;;;;;;;;2.15;100.00;95140.66;1023648;29;19926;-70
2022/04/21 02:11:16;;;;;;;;;;;;;;;2.13;100.00;95141.69;1023605;29;19919;-71
2022/04/21 02:11:46;;;;;;;;;;;;;;;2.11;100.00;95142.91;1021080;28;19919;-70
2022/04/21 02:12:17;;;;;;;;;;;;;;;2.09;100.00;95137.97;1027465;28;20377;-70
2022/04/21 02:12:47;;;;;;;;;;;;;;;2.08;100.00;95141.56;1027757;28;19922;-71
2022/04/21 02:13:17;;;;;;;;;;;;;;;2.07;100.00;95142.56;1019563;28;19974;-70
2022/04/21 02:13:48;;;;;;;;;;;;;;;2.05;100.00;95144.59;1023411;28;20189;-70
2022/04/21 02:14:18;;;;;;;;;;;;;;;2.03;100.00;95141.44;1023824;28;19928;-71
2022/04/21 02:14:48;;;;;;;;;;;;;;;2.01;100.00;95142.66;1027594;28;19930;-70
2022/04/21 02:15:19;;;;;;;;;;;;;;;1.99;100.00;95142.91;1027442;28;19976;-70
2022/04/21 02:15:50;;;;;;;;;;;;;;;1.95;100.00;95141.78;1026488;28;19923;-71
2022/04/21 02:16:20;;;;;;;;;;;;;;;1.94;100.00;95137.59;1023390;29;19922;-71
2022/04/21 02:16:50;;;;;;;;;;;;;;;1.93;100.00;95140.41;1027115;28;19922;-70
2022/04/21 02:17:21;;;;;;;;;;;;;;;1.90;100.00;95136.47;1023246;29;19929;-71
2022/04/21 02:17:51;;;;;;;;;;;;;;;1.86;100.00;95132.75;1015636;29;20289;-71
2022/04/21 02:18:24;;;;;;;;;;;;;;;1.86;100.00;95133.53;1020237;29;19923;-71
2022/04/21 02:18:55;;;;;;;;;;;;;;;1.85;100.00;95138.97;1023672;28;19965;-73
2022/04/21 02:19:25;;;;;;;;;;;;;;;1.82;100.00;95132.41;1027965;28;19918;-71
2022/04/21 02:19:55;;;;;;;;;;;;;;;1.80;100.00;95136.22;1031611;28;19925;-70
2022/04/21 02:20:26;;;;;;;;;;;;;;;1.81;100.00;95132.63;1027414;28;19918;-71
2022/04/21 02:20:59;;;;;;;;;;;;;;;1.82;100.00;95141.97;1023493;28;19926;-70
2022/04/21 02:21:29;;;;;;;;;;;;;;;1.82;100.00;95140.19;1023567;29;20399;-71
2022/04/21 02:21:59;;;;;;;;;;;;;;;1.81;100.00;95140.38;1019518;29;19922;-70
2022/04/21 02:22:30;;;;;;;;;;;;;;;1.76;100.00;95138.47;1027409;28;20362;-71
2022/04/21 02:23:00;;;;;;;;;;;;;;;1.76;100.00;95129.94;1027414;28;19918;-71
2022/04/21 02:23:30;;;;;;;;;;;;;;;1.77;100.00;95142.63;1027497;28;19965;-71
2022/04/21 02:24:01;;;;;;;;;;;;;;;1.76;100.00;95140.28;1022979;28;19922;-71
2022/04/21 02:24:31;;;;;;;;;;;;;;;1.75;100.00;95138.72;1027401;28;20567;-71
2022/04/21 02:25:04;;;;;;;;;;;;;;;1.74;100.00;95143.06;1023567;28;20289;-71
2022/04/21 02:25:35;;;;;;;;;;;;;;;1.72;100.00;95150.28;1023878;28;20433;-72
2022/04/21 02:26:06;;;;;;;;;;;;;;;1.75;100.00;95141.31;1030720;28;19922;-71
2022/04/21 02:26:36;;;;;;;;;;;;;;;1.74;100.00;95147.47;1031666;28;19910;-70
2022/04/21 02:27:08;;;;;;;;;;;;;;;1.75;100.00;95143.88;1026737;28;19926;-71
2022/04/21 02:27:38;;;;;;;;;;;;;;;1.76;100.00;95140.28;1025748;28;19989;-71
2022/04/21 02:28:09;;;;;;;;;;;;;;;1.79;100.00;95145.00;1023445;29;19915;-71
2022/04/21 02:28:39;;;;;;;;;;;;;;;1.77;100.00;95140.03;1015588;29;19970;-71
2022/04/21 02:29:09;;;;;;;;;;;;;;;1.79;100.00;95145.78;1019857;29;19962;-70
2022/04/21 02:29:40;;;;;;;;;;;;;;;1.81;100.00;95137.81;1023427;28;20402;-70
2022/04/21 02:30:10;;;;;;;;;;;;;;;1.86;100.00;95132.75;1023357;28;20301;-71
2022/04/21 02:30:41;;;;;;;;;;;;;;;1.89;100.00;95140.09;1026959;28;19914;-70
2022/04/21 02:31:12;;;;;;;;;;;;;;;1.94;100.00;95137.59;1027200;28;20064;-71
2022/04/21 02:31:42;;;;;;;;;;;;;;;1.92;100.00;95133.69;1027396;28;19910;-70
2022/04/21 02:32:12;;;;;;;;;;;;;;;1.96;100.00;95142.56;1023472;29;20372;-71
2022/04/21 02:32:43;;;;;;;;;;;;;;;1.98;100.00;95143.13;1019066;29;19925;-71
2022/04/21 02:33:13;;;;;;;;;;;;;;;1.99;100.00;95135.16;1019810;29;19942;-70
2022/04/21 02:33:43;;;;;;;;;;;;;;;2.04;100.00;95139.63;1019341;29;19911;-70
2022/04/21 02:34:14;;;;;;;;;;;;;;;2.11;100.00;95140.31;1027446;28;19914;-70
2022/04/21 02:34:44;;;;;;;;;;;;;;;2.09;100.00;95134.59;1023394;29;20023;-71
2022/04/21 02:35:14;;;;;;;;;;;;;;;2.11;100.00;95138.53;1019560;29;19919;-71
2022/04/21 02:35:45;;;;;;;;;;;;;;;2.10;100.00;95141.34;1011805;29;20014;-71
2022/04/21 02:36:15;;;;;;;;;;;;;;;2.11;100.00;95130.78;1011821;29;20027;-71
2022/04/21 02:36:45;;;;;;;;;;;;;;;2.12;100.00;95144.50;1010951;29;19938;-70
2022/04/21 02:37:18;;;;;;;;;;;;;;;2.13;100.00;95141.69;1012126;29;20389;-70
2022/04/21 02:37:48;;;;;;;;;;;;;;;2.13;100.00;95136.50;1018142;28;19919;-70
2022/04/21 02:38:19;;;;;;;;;;;;;;;2.15;100.00;95132.88;1027455;28;19918;-70
2022/04/21 02:38:49;;;;;;;;;;;;;;;2.13;100.00;95126.16;1019955;29;19915;-71
2022/04/21 02:39:19;;;;;;;;;;;;;;;2.12;100.00;95132.34;1023840;28;19915;-70
2022/04/21 02:39:50;;;;;;;;;;;;;;;2.15;100.00;95132.88;1019390;29;20296;-70
2022/04/21 02:40:20;;;;;;;;;;;;;;;2.15;100.00;95132.88;1019547;29;19986;-71
2022/04/21 02:40:50;;;;;;;;;;;;;;;2.19;100.00;95134.03;1023435;29;19918;-71
2022/04/21 02:41:20;;;;;;;;;;;;;;;2.19;100.00;95124.47;1027429;28;19953;-71
2022/04/21 02:41:51;;;;;;;;;;;;;;;2.21;100.00;95129.41;1027403;28;19910;-71
2022/04/21 02:42:21;;;;;;;;;;;;;;;2.19;100.00;95124.47;1027388;28;19910;-71
2022/04/21 02:42:51;;;;;;;;;;;;;;;2.21;100.00;95127.59;1023306;28;20296;-71
2022/04/21 02:43:22;;;;;;;;;;;;;;;2.22;100.00;95128.41;1023336;28;19956;-71
2022/04/21 02:43:52;;;;;;;;;;;;;;;2.23;100.00;95130.00;1027437;28;19953;-71
2022/04/21 02:44:23;;;;;;;;;;;;;;;2.22;100.00;95123.25;1031554;28;19945;-70
2022/04/21 02:44:54;;;;;;;;;;;;;;;2.22;100.00;95124.03;1031466;28;20050;-70
2022/04/21 02:45:24;;;;;;;;;;;;;;;2.24;100.00;95128.97;1031481;28;19992;-70
2022/04/21 02:45:54;;;;;;;;;;;;;;;2.24;100.00;95126.38;1027392;28;19914;-71
2022/04/21 02:46:27;;;;;;;;;;;;;;;2.23;100.00;95130.78;1027319;28;20033;-70
2022/04/21 02:46:58;;;;;;;;;;;;;;;2.22;100.00;95131.00;1022873;29;20496;-71
2022/04/21 02:47:31;;;;;;;;;;;;;;;2.24;100.00;95127.16;1019401;29;19942;-71
2022/04/21 02:48:01;;;;;;;;;;;;;;;2.23;100.00;95125.59;1016023;29;19919;-71